Time;durP1;ratioP1;P1;durP2;ratioP2;P2;SDS_P1;SDS_P2;PMS_P1;PMS_P2;Temp;Humidity;BMP_temperature;BMP_pressure;BME280_temperature;BME280_humidity;BME280_pressure;Samples;Min_cycle;Max_cycle;Signal;HPM_P1;HPM_P2
2022/10/19 00:08:58;;;;;;;15.97;8.20;;;18.90;99.90;;;;;;7987303;73;26273;-60
2022/10/19 00:19:02;;;;;;;12.63;7.60;;;18.80;99.90;;;;;;7992653;73;27334;-60
2022/10/19 00:29:05;;;;;;;15.80;8.47;;;18.80;99.90;;;;;;7986388;73;26314;-59
2022/10/19 00:39:13;;;;;;;12.07;7.10;;;18.90;99.90;;;;;;7961874;73;26261;-60
2022/10/19 00:49:21;;;;;;;11.93;7.00;;;18.80;99.90;;;;;;7957115;73;26803;-61
2022/10/19 00:59:26;;;;;;;9.17;6.33;;;18.80;99.90;;;;;;7906051;73;26265;-60
2022/10/19 01:09:29;;;;;;;14.57;7.10;;;18.80;99.90;;;;;;7775330;75;26854;-60
2022/10/19 01:19:40;;;;;;;8.97;6.73;;;18.80;99.90;;;;;;7751006;75;26364;-60
2022/10/19 01:30:00;;;;;;;14.23;7.07;;;18.70;99.90;;;;;;7759637;75;26295;-59
2022/10/19 01:40:06;;;;;;;11.73;7.57;;;18.70;99.90;;;;;;7754086;75;26631;-61
2022/10/19 01:50:11;;;;;;;12.17;7.07;;;18.70;99.90;;;;;;7759588;75;26261;-60
2022/10/19 02:00:16;;;;;;;13.00;7.43;;;18.70;99.90;;;;;;7863918;72;26277;-60
2022/10/19 02:10:21;;;;;;;14.00;8.43;;;18.40;99.90;;;;;;8022943;72;26243;-59
2022/10/19 02:20:24;;;;;;;13.67;7.10;;;18.50;99.90;;;;;;7996394;72;26999;-60
2022/10/19 02:30:26;;;;;;;10.37;6.97;;;18.60;99.90;;;;;;8026498;73;26691;-59
2022/10/19 02:40:34;;;;;;;11.50;6.67;;;18.40;99.90;;;;;;8015869;72;26230;-61
2022/10/19 02:50:37;;;;;;;15.70;8.87;;;18.40;99.90;;;;;;8012973;72;26628;-60
2022/10/19 03:00:40;;;;;;;15.40;9.27;;;17.90;99.90;;;;;;8020122;72;26723;-61
2022/10/19 03:10:42;;;;;;;18.67;9.70;;;18.20;99.90;;;;;;7977044;73;26277;-61
2022/10/19 03:20:45;;;;;;;18.70;8.70;;;18.10;99.90;;;;;;7983044;73;26213;-60
2022/10/19 03:30:47;;;;;;;14.53;8.73;;;18.00;99.90;;;;;;7999461;72;26269;-59
2022/10/19 03:40:50;;;;;;;15.47;10.27;;;17.90;99.90;;;;;;8000955;73;27104;-60
2022/10/19 03:51:07;;;;;;;11.57;7.33;;;17.80;99.90;;;;;;8002940;73;26202;-60
2022/10/19 04:01:13;;;;;;;12.50;8.43;;;17.90;99.90;;;;;;8012268;72;26204;-59
2022/10/19 04:11:16;;;;;;;16.27;9.60;;;17.90;99.90;;;;;;8001469;72;26222;-61
2022/10/19 04:21:33;;;;;;;12.87;9.13;;;17.30;99.90;;;;;;8008427;72;26201;-62
2022/10/19 04:31:36;;;;;;;18.33;9.60;;;17.50;99.90;;;;;;8016069;72;26863;-60
2022/10/19 04:41:39;;;;;;;14.47;8.87;;;17.50;99.90;;;;;;8005551;72;26872;-62
2022/10/19 04:51:41;;;;;;;13.67;8.33;;;17.60;99.90;;;;;;8018338;72;26312;-60
2022/10/19 05:01:44;;;;;;;11.27;7.87;;;17.70;99.90;;;;;;8006756;72;27066;-60
2022/10/19 05:11:51;;;;;;;13.07;7.10;;;17.70;99.90;;;;;;7995061;72;26275;-61
2022/10/19 05:21:53;;;;;;;12.93;7.60;;;17.50;99.90;;;;;;8012394;72;26233;-62
2022/10/19 05:31:55;;;;;;;14.13;8.30;;;17.60;99.90;;;;;;8001064;73;26198;-60
2022/10/19 05:41:58;;;;;;;15.07;8.93;;;17.20;99.90;;;;;;8007526;72;26684;-61
2022/10/19 05:52:00;;;;;;;15.07;8.53;;;17.30;99.90;;;;;;8000448;72;26237;-60
2022/10/19 06:02:03;;;;;;;16.90;7.30;;;16.70;99.90;;;;;;8025347;72;26291;-60
2022/10/19 06:12:05;;;;;;;17.63;8.10;;;17.10;99.90;;;;;;7992367;72;26363;-61
2022/10/19 06:22:08;;;;;;;9.77;6.70;;;16.80;99.90;;;;;;8015045;72;26275;-59
2022/10/19 06:32:11;;;;;;;13.50;6.83;;;16.60;99.90;;;;;;8008671;72;26261;-60
2022/10/19 06:42:13;;;;;;;16.13;7.73;;;16.60;99.90;;;;;;8019654;72;26316;-59
2022/10/19 06:52:15;;;;;;;9.70;5.93;;;16.70;99.90;;;;;;8022308;73;26680;-61
2022/10/19 07:02:18;;;;;;;14.77;7.27;;;16.80;99.90;;;;;;8019842;72;26217;-62
2022/10/19 07:12:20;;;;;;;15.93;6.87;;;16.20;99.90;;;;;;8026844;73;26310;-62
2022/10/19 07:22:23;;;;;;;21.67;6.63;;;16.30;99.90;;;;;;8017973;73;26260;-62
2022/10/19 07:32:27;;;;;;;13.53;6.43;;;16.50;99.90;;;;;;8016578;72;26323;-62
2022/10/19 07:42:30;;;;;;;11.97;6.27;;;16.40;99.90;;;;;;8020564;72;26256;-61
2022/10/19 07:52:32;;;;;;;10.83;5.60;;;16.20;99.90;;;;;;8013335;73;26237;-64
2022/10/19 08:02:35;;;;;;;12.07;6.47;;;16.40;99.90;;;;;;8022757;72;26260;-61
2022/10/19 08:12:37;;;;;;;9.63;5.37;;;16.10;99.90;;;;;;8019127;72;26991;-61
2022/10/19 08:22:40;;;;;;;8.50;5.80;;;16.00;99.90;;;;;;8015099;73;26272;-61
2022/10/19 08:32:43;;;;;;;12.70;5.20;;;15.80;99.90;;;;;;8018485;72;26582;-61
2022/10/19 08:42:48;;;;;;;10.67;5.10;;;16.00;99.90;;;;;;7995007;72;26261;-61
2022/10/19 08:52:56;;;;;;;10.37;4.90;;;16.20;99.90;;;;;;8018423;72;26364;-62
2022/10/19 09:03:20;;;;;;;10.37;5.10;;;16.20;99.90;;;;;;8000622;72;26280;-61
2022/10/19 09:13:35;;;;;;;15.83;7.33;;;16.10;99.90;;;;;;8014913;73;26252;-62
2022/10/19 09:23:40;;;;;;;23.67;8.93;;;16.10;99.90;;;;;;8009221;72;26373;-61
2022/10/19 09:33:46;;;;;;;22.50;8.53;;;16.60;99.90;;;;;;8007094;72;26269;-61
2022/10/19 09:43:54;;;;;;;28.60;9.83;;;16.30;99.90;;;;;;8021900;73;26331;-61
2022/10/19 09:53:58;;;;;;;23.63;8.83;;;16.50;99.90;;;;;;8016482;72;26256;-62
2022/10/19 10:04:15;;;;;;;27.97;9.93;;;16.60;99.90;;;;;;8029342;73;26711;-61
2022/10/19 10:14:26;;;;;;;23.53;8.77;;;16.50;99.90;;;;;;8014447;72;26194;-61
2022/10/19 10:24:31;;;;;;;18.87;8.60;;;16.40;99.90;;;;;;8017252;73;26212;-62
2022/10/19 10:34:39;;;;;;;23.13;7.63;;;16.50;99.90;;;;;;8021106;72;26205;-62
2022/10/19 10:44:47;;;;;;;21.20;7.83;;;16.70;99.90;;;;;;8014284;73;26298;-62
2022/10/19 10:55:09;;;;;;;23.03;9.83;;;16.80;99.90;;;;;;8010863;73;26245;-62
2022/10/19 11:05:25;;;;;;;22.10;8.60;;;16.90;99.90;;;;;;8016011;73;26843;-62
2022/10/19 11:15:36;;;;;;;18.13;8.37;;;17.00;99.90;;;;;;8016394;72;26267;-62
2022/10/19 11:25:42;;;;;;;19.77;8.83;;;17.10;99.90;;;;;;7994735;72;26233;-62
2022/10/19 11:36:05;;;;;;;29.27;7.50;;;17.10;99.90;;;;;;8012069;72;26255;-62
2022/10/19 11:46:32;;;;;;;17.00;7.10;;;17.20;99.90;;;;;;8015273;73;26232;-62
2022/10/19 11:56:40;;;;;;;13.60;6.07;;;17.20;99.90;;;;;;8025627;72;26278;-62
2022/10/19 12:07:02;;;;;;;12.70;5.57;;;17.30;99.90;;;;;;8004483;72;26236;-63
2022/10/19 12:17:13;;;;;;;20.40;6.40;;;17.40;99.90;;;;;;8020925;72;26685;-62
2022/10/19 12:27:18;;;;;;;13.40;5.27;;;17.50;99.90;;;;;;7984228;72;26589;-62
2022/10/19 12:37:53;;;;;;;11.07;5.17;;;17.40;99.90;;;;;;8016816;73;26221;-61
2022/10/19 12:48:14;;;;;;;13.10;6.00;;;17.20;99.90;;;;;;8019014;72;26699;-61
2022/10/19 12:58:20;;;;;;;10.13;4.43;;;17.30;99.90;;;;;;8034271;72;26679;-61
2022/10/19 13:08:25;;;;;;;15.37;5.10;;;17.20;99.90;;;;;;8016870;72;26221;-62
2022/10/19 13:19:02;;;;;;;13.17;5.60;;;17.30;99.90;;;;;;8023926;72;26210;-61
2022/10/19 13:29:08;;;;;;;14.40;5.03;;;17.10;99.90;;;;;;8006902;72;26715;-61
2022/10/19 13:39:13;;;;;;;13.00;5.07;;;17.00;99.90;;;;;;8004949;72;26284;-61
2022/10/19 13:49:33;;;;;;;10.80;4.33;;;17.00;99.90;;;;;;8004467;73;26268;-61
2022/10/19 13:59:42;;;;;;;9.03;4.33;;;17.10;99.90;;;;;;8017707;73;26237;-61
2022/10/19 14:10:12;;;;;;;9.93;3.70;;;17.30;99.90;;;;;;8025049;73;26217;-61
2022/10/19 14:20:25;;;;;;;12.53;3.80;;;17.20;99.90;;;;;;8016738;73;26286;-62
2022/10/19 14:30:33;;;;;;;7.07;3.20;;;17.40;99.90;;;;;;8020464;72;26776;-62
2022/10/19 14:40:40;;;;;;;9.23;3.40;;;17.40;99.90;;;;;;8018503;73;26703;-62
2022/10/19 14:50:46;;;;;;;12.53;4.13;;;17.40;99.90;;;;;;8008684;73;26209;-62
2022/10/19 15:00:50;;;;;;;16.33;4.63;;;17.30;99.90;;;;;;8009036;72;26291;-61
2022/10/19 15:10:53;;;;;;;12.30;3.70;;;17.30;99.90;;;;;;8012519;72;26780;-61
2022/10/19 15:21:16;;;;;;;11.70;3.60;;;17.30;99.90;;;;;;8012848;72;26825;-59
2022/10/19 15:31:22;;;;;;;8.00;3.77;;;16.90;99.90;;;;;;8024079;72;26341;-61
2022/10/19 15:41:34;;;;;;;10.30;3.27;;;17.20;99.90;;;;;;8012993;73;26267;-60
2022/10/19 15:51:39;;;;;;;7.53;3.93;;;17.10;99.90;;;;;;8012838;72;26731;-61
2022/10/19 16:01:42;;;;;;;9.50;5.43;;;17.20;99.90;;;;;;8014973;72;26318;-61
2022/10/19 16:11:45;;;;;;;14.00;5.20;;;17.10;99.90;;;;;;8001078;72;26566;-61
2022/10/19 16:21:47;;;;;;;8.07;3.80;;;16.90;99.90;;;;;;8013352;72;26278;-61
2022/10/19 16:31:50;;;;;;;10.53;4.00;;;16.90;99.90;;;;;;8014887;72;26380;-60
2022/10/19 16:41:52;;;;;;;7.00;3.80;;;16.70;99.90;;;;;;8012038;73;26197;-60
2022/10/19 16:51:55;;;;;;;8.13;3.60;;;16.70;99.90;;;;;;8023071;72;26241;-62
2022/10/19 17:01:57;;;;;;;8.10;3.60;;;16.70;99.90;;;;;;8016443;72;26793;-61
2022/10/19 17:12:00;;;;;;;5.10;3.10;;;16.60;99.90;;;;;;7973701;72;26268;-61
2022/10/19 17:22:04;;;;;;;5.97;2.90;;;16.60;99.90;;;;;;8018718;73;26237;-60
2022/10/19 17:32:07;;;;;;;5.37;2.90;;;16.60;99.90;;;;;;8025585;72;26314;-61
2022/10/19 17:42:09;;;;;;;5.67;2.97;;;16.50;99.90;;;;;;8000284;72;26237;-60
2022/10/19 17:52:12;;;;;;;9.43;3.50;;;16.60;99.90;;;;;;8015722;72;26197;-61
2022/10/19 18:02:14;;;;;;;6.37;3.80;;;16.30;99.90;;;;;;8017006;73;26719;-61
2022/10/19 18:12:17;;;;;;;7.83;4.20;;;16.40;99.90;;;;;;8010023;72;26205;-61
2022/10/19 18:22:20;;;;;;;6.07;4.00;;;16.30;99.90;;;;;;8023009;72;26292;-61
2022/10/19 18:32:23;;;;;;;11.10;5.27;;;16.40;99.90;;;;;;8021295;72;26280;-61
2022/10/19 18:42:25;;;;;;;8.60;6.10;;;16.10;99.90;;;;;;8014812;73;26298;-60
2022/10/19 18:52:28;;;;;;;9.03;5.67;;;16.00;99.90;;;;;;8026234;72;26283;-61
2022/10/19 19:02:31;;;;;;;9.60;5.83;;;16.20;99.90;;;;;;8014126;73;26723;-62
2022/10/19 19:12:33;;;;;;;10.83;6.13;;;16.10;99.90;;;;;;8021869;73;26190;-61
2022/10/19 19:22:36;;;;;;;8.27;4.90;;;16.00;99.90;;;;;;8012817;72;26248;-60
2022/10/19 19:32:39;;;;;;;7.60;5.10;;;16.00;99.90;;;;;;8024682;73;26307;-61
2022/10/19 19:42:42;;;;;;;7.63;4.93;;;16.20;99.90;;;;;;8010471;72;26233;-61
2022/10/19 19:52:44;;;;;;;9.33;5.77;;;16.20;99.90;;;;;;8016842;72;26253;-61
2022/10/19 20:02:52;;;;;;;11.93;6.30;;;16.10;99.90;;;;;;8030507;72;27094;-61
2022/10/19 20:12:54;;;;;;;6.23;4.10;;;16.00;99.90;;;;;;8021868;73;26233;-61
2022/10/19 20:22:57;;;;;;;11.93;6.20;;;16.30;99.90;;;;;;8020773;72;26746;-60
2022/10/19 20:32:59;;;;;;;15.27;7.63;;;16.20;99.90;;;;;;8012468;72;26218;-60
2022/10/19 20:43:02;;;;;;;11.13;6.40;;;16.00;99.90;;;;;;8019987;72;26218;-60
2022/10/19 20:53:04;;;;;;;9.13;6.27;;;16.00;99.90;;;;;;8001678;72;26266;-60
2022/10/19 21:03:07;;;;;;;13.63;6.93;;;16.20;99.90;;;;;;7973734;72;26774;-59
2022/10/19 21:13:09;;;;;;;11.80;6.70;;;16.30;99.90;;;;;;7988078;72;26351;-59
2022/10/19 21:23:12;;;;;;;17.80;9.37;;;15.60;99.90;;;;;;8009023;72;26257;-60
2022/10/19 21:33:14;;;;;;;9.10;5.93;;;15.70;99.90;;;;;;7978120;72;26746;-60
2022/10/19 21:43:17;;;;;;;10.20;6.50;;;15.80;99.90;;;;;;8024830;72;26371;-60
2022/10/19 21:53:22;;;;;;;9.90;5.80;;;15.80;99.90;;;;;;8027067;72;26353;-60
2022/10/19 22:03:24;;;;;;;11.70;5.47;;;15.50;99.90;;;;;;8011766;72;26260;-59
2022/10/19 22:13:27;;;;;;;6.73;4.73;;;15.70;99.90;;;;;;8037247;72;26229;-60
2022/10/19 22:23:30;;;;;;;6.70;4.17;;;15.90;99.90;;;;;;8028010;72;26221;-59
2022/10/19 22:33:33;;;;;;;8.83;4.83;;;16.10;99.90;;;;;;8016612;72;26279;-60
2022/10/19 22:43:36;;;;;;;6.53;4.53;;;16.10;99.90;;;;;;8028888;72;26236;-60
2022/10/19 22:53:39;;;;;;;7.57;4.57;;;16.20;99.90;;;;;;8028918;72;26751;-59
2022/10/19 23:03:41;;;;;;;6.43;4.47;;;16.10;99.90;;;;;;8012564;72;26297;-59
2022/10/19 23:13:44;;;;;;;6.87;4.30;;;16.20;99.90;;;;;;8033772;72;26734;-60
2022/10/19 23:23:46;;;;;;;6.00;3.90;;;16.30;99.90;;;;;;8028482;72;26209;-60
2022/10/19 23:33:49;;;;;;;5.40;3.73;;;16.30;99.90;;;;;;8012461;72;26280;-59
2022/10/19 23:43:52;;;;;;;6.47;4.50;;;16.30;99.90;;;;;;8006108;72;26205;-61
2022/10/19 23:53:54;;;;;;;10.63;5.50;;;16.30;99.90;;;;;;8020749;72;26730;-60
